Warren, RI (02885)

11:25 PM EDT on July 30, 2016 (GMT -0400)
South of Downtown Warren | | Change Station

Elev 47 ft 41.72 °N, 71.28 °W | Updated 1 second ago

Light Drizzle
Light Drizzle
73.6 °F
Feels Like 71 °F
N
0.0
Wind Variable Wind from SSW
Gusts 2.0 mph

Today
High -- | Low -- °F
--% Chance of Precip.
Yesterday
High -- | Low -- °F
Precip. -- in
Pressure 30.07 in
Visibility 9.0 miles
Clouds Mostly Cloudy 1400 ft
Mostly Cloudy 2200 ft
Overcast 13000 ft
Heat Index 71 °F
Dew Point 71 °F
Humidity 91%
Rainfall 0.00 in
Snow Depth Not available.
5:37 AM 8:04 PM
Waning Crescent, 9% visible
SPECI KPVD 310304Z 20007KT 9SM -DZ BKN014 BKN022 OVC130 23/21 A3007 RMK AO2 RAE0255DZB0255 P0000 T02330211 $
Pressure 30.07 in
Visibility 9.0 miles
Clouds Mostly Cloudy 1400 ft
Mostly Cloudy 2200 ft
Overcast 13000 ft
Heat Index 71 °F
Dew Point 71 °F
Humidity 91%
Rainfall 0.00 in
Snow Depth Not available.
5:37 AM 8:04 PM
Waning Crescent, 9% visible
SPECI KPVD 310304Z 20007KT 9SM -DZ BKN014 BKN022 OVC130 23/21 A3007 RMK AO2 RAE0255DZB0255 P0000 T02330211 $

10-Day Weather Forecast

Almanac

Astronomy

Jul. 30, 2016 Rise Set
Actual Time
Civil Twilight
Nautical Twilight
Astronomical Twilight
Moon
Length of Visible Light
Length of Day
Tomorrow will be .
, % of the Moon is Illuminated

Today's Extremes

State Highs State Lows

Community

WunderPhotos

Upload Photos

1,928,734 photos uploaded!

WunderBlog® & News

Nearby

Air Quality

  Air Quality AQ Index Pollutant
Not available.

Snow Depth

Station Depth Elevation

Earthquake Activity

City Distance Mag. Time & Date
Minimum magnitude displayed is 2.5.

Coastal Water Temperatures

Place Temperature

Stations

Nearby Weather Stations

Station Location Temp. Windchill Dew Point Humidity Wind Precip. Elev Updated Type
                   

Watches & Warnings

There are currently no watches in effect.